sensor_id;sensor_type;location;lat;lon;timestamp;pressure;altitude;pressure_sealevel;temperature;humidity
10921;BME280;5513;50.580;8.818;2023-02-13T00:01:30;101241.56;;;7.60;100.00
10921;BME280;5513;50.580;8.818;2023-02-13T00:03:59;101241.66;;;7.56;100.00
10921;BME280;5513;50.580;8.818;2023-02-13T00:06:27;101242.56;;;7.55;100.00
10921;BME280;5513;50.580;8.818;2023-02-13T00:08:56;101244.44;;;7.48;100.00
10921;BME280;5513;50.580;8.818;2023-02-13T00:11:26;101234.81;;;7.45;100.00
10921;BME280;5513;50.580;8.818;2023-02-13T00:13:54;101237.47;;;7.42;100.00
10921;BME280;5513;50.580;8.818;2023-02-13T00:16:23;101239.22;;;7.45;100.00
10921;BME280;5513;50.580;8.818;2023-02-13T00:18:53;101237.53;;;7.39;100.00
10921;BME280;5513;50.580;8.818;2023-02-13T00:21:21;101238.19;;;7.52;100.00
10921;BME280;5513;50.580;8.818;2023-02-13T00:23:50;101234.72;;;7.50;100.00
10921;BME280;5513;50.580;8.818;2023-02-13T00:26:18;101241.81;;;7.46;100.00
10921;BME280;5513;50.580;8.818;2023-02-13T00:28:49;101235.59;;;7.51;100.00
10921;BME280;5513;50.580;8.818;2023-02-13T00:31:18;101238.38;;;7.41;100.00
10921;BME280;5513;50.580;8.818;2023-02-13T00:33:47;101228.00;;;7.34;100.00
10921;BME280;5513;50.580;8.818;2023-02-13T00:36:22;101228.69;;;7.43;100.00
10921;BME280;5513;50.580;8.818;2023-02-13T00:38:53;101230.44;;;7.43;100.00
10921;BME280;5513;50.580;8.818;2023-02-13T00:41:21;101228.50;;;7.54;100.00
10921;BME280;5513;50.580;8.818;2023-02-13T00:43:49;101227.00;;;7.39;100.00
10921;BME280;5513;50.580;8.818;2023-02-13T00:46:18;101224.25;;;7.45;100.00
10921;BME280;5513;50.580;8.818;2023-02-13T00:48:46;101225.19;;;7.41;100.00
10921;BME280;5513;50.580;8.818;2023-02-13T00:51:14;101224.44;;;7.36;100.00
10921;BME280;5513;50.580;8.818;2023-02-13T00:53:44;101234.13;;;7.34;100.00
10921;BME280;5513;50.580;8.818;2023-02-13T00:56:14;101239.38;;;7.36;100.00
10921;BME280;5513;50.580;8.818;2023-02-13T00:58:42;101233.06;;;7.44;100.00
10921;BME280;5513;50.580;8.818;2023-02-13T01:01:14;101232.41;;;7.32;100.00
10921;BME280;5513;50.580;8.818;2023-02-13T01:03:43;101226.19;;;7.36;100.00
10921;BME280;5513;50.580;8.818;2023-02-13T01:06:12;101229.81;;;7.29;100.00
10921;BME280;5513;50.580;8.818;2023-02-13T01:08:41;101229.56;;;7.44;100.00
10921;BME280;5513;50.580;8.818;2023-02-13T01:11:11;101237.47;;;7.42;100.00
10921;BME280;5513;50.580;8.818;2023-02-13T01:13:39;101235.00;;;7.35;100.00
10921;BME280;5513;50.580;8.818;2023-02-13T01:16:07;101229.66;;;7.38;100.00
10921;BME280;5513;50.580;8.818;2023-02-13T01:18:36;101232.72;;;7.15;100.00
10921;BME280;5513;50.580;8.818;2023-02-13T01:21:06;101236.09;;;7.22;100.00
10921;BME280;5513;50.580;8.818;2023-02-13T01:23:37;101230.63;;;7.32;100.00
10921;BME280;5513;50.580;8.818;2023-02-13T01:26:08;101232.50;;;7.27;100.00
10921;BME280;5513;50.580;8.818;2023-02-13T01:28:39;101233.41;;;7.23;100.00
10921;BME280;5513;50.580;8.818;2023-02-13T01:31:07;101226.38;;;7.24;100.00
10921;BME280;5513;50.580;8.818;2023-02-13T01:33:36;101225.34;;;7.34;100.00
10921;BME280;5513;50.580;8.818;2023-02-13T01:36:07;101222.78;;;7.29;100.00
10921;BME280;5513;50.580;8.818;2023-02-13T01:38:36;101232.69;;;7.16;100.00
10921;BME280;5513;50.580;8.818;2023-02-13T01:41:06;101231.66;;;7.25;100.00
10921;BME280;5513;50.580;8.818;2023-02-13T01:43:47;101219.38;;;7.23;100.00
10921;BME280;5513;50.580;8.818;2023-02-13T01:46:20;101223.72;;;7.27;100.00
10921;BME280;5513;50.580;8.818;2023-02-13T01:48:50;101218.69;;;7.11;100.00
10921;BME280;5513;50.580;8.818;2023-02-13T01:51:23;101218.69;;;7.11;100.00
10921;BME280;5513;50.580;8.818;2023-02-13T01:53:56;101213.28;;;7.19;100.00
10921;BME280;5513;50.580;8.818;2023-02-13T01:56:28;101218.66;;;7.14;100.00
10921;BME280;5513;50.580;8.818;2023-02-13T01:59:03;101214.03;;;7.27;100.00
10921;BME280;5513;50.580;8.818;2023-02-13T02:01:32;101209.72;;;7.22;100.00
10921;BME280;5513;50.580;8.818;2023-02-13T02:04:06;101207.16;;;7.18;100.00
10921;BME280;5513;50.580;8.818;2023-02-13T02:06:43;101214.06;;;7.26;100.00
10921;BME280;5513;50.580;8.818;2023-02-13T02:09:15;101209.84;;;7.14;100.00
10921;BME280;5513;50.580;8.818;2023-02-13T02:11:49;101213.16;;;7.27;100.00
10921;BME280;5513;50.580;8.818;2023-02-13T02:14:21;101215.94;;;7.19;100.00
10921;BME280;5513;50.580;8.818;2023-02-13T02:16:49;101218.59;;;7.17;100.00
10921;BME280;5513;50.580;8.818;2023-02-13T02:19:27;101212.59;;;7.09;100.00
10921;BME280;5513;50.580;8.818;2023-02-13T02:22:21;101222.09;;;7.18;100.00
10921;BME280;5513;50.580;8.818;2023-02-13T02:25:18;101216.97;;;7.09;100.00
10921;BME280;5513;50.580;8.818;2023-02-13T02:28:06;101214.31;;;7.10;100.00
10921;BME280;5513;50.580;8.818;2023-02-13T02:31:17;101210.72;;;7.16;100.00
10921;BME280;5513;50.580;8.818;2023-02-13T02:33:58;101212.47;;;7.17;100.00
10921;BME280;5513;50.580;8.818;2023-02-13T02:36:40;101210.59;;;7.22;100.00
10921;BME280;5513;50.580;8.818;2023-02-13T02:39:20;101211.50;;;7.21;100.00
10921;BME280;5513;50.580;8.818;2023-02-13T02:41:57;101203.44;;;7.30;100.00
10921;BME280;5513;50.580;8.818;2023-02-13T02:44:38;101212.97;;;7.37;100.00
10921;BME280;5513;50.580;8.818;2023-02-13T02:47:17;101209.34;;;7.44;100.00
10921;BME280;5513;50.580;8.818;2023-02-13T02:50:24;101209.34;;;7.43;100.00
10921;BME280;5513;50.580;8.818;2023-02-13T02:53:06;101204.88;;;7.48;100.00
10921;BME280;5513;50.580;8.818;2023-02-13T02:55:42;101205.19;;;7.30;100.00
10921;BME280;5513;50.580;8.818;2023-02-13T02:58:17;101205.13;;;7.33;100.00
10921;BME280;5513;50.580;8.818;2023-02-13T03:01:06;101200.75;;;7.32;100.00
10921;BME280;5513;50.580;8.818;2023-02-13T03:03:56;101202.56;;;7.30;100.00
10921;BME280;5513;50.580;8.818;2023-02-13T03:06:46;101205.13;;;7.34;100.00
10921;BME280;5513;50.580;8.818;2023-02-13T03:09:20;101198.69;;;7.49;100.00
10921;BME280;5513;50.580;8.818;2023-02-13T03:12:07;101193.53;;;7.44;100.00
10921;BME280;5513;50.580;8.818;2023-02-13T03:14:53;101199.84;;;7.36;100.00
10921;BME280;5513;50.580;8.818;2023-02-13T03:17:21;101194.53;;;7.37;100.00
10921;BME280;5513;50.580;8.818;2023-02-13T03:20:13;101191.97;;;7.34;100.00
10921;BME280;5513;50.580;8.818;2023-02-13T03:23:10;101195.47;;;7.35;100.00
10921;BME280;5513;50.580;8.818;2023-02-13T03:25:58;101193.63;;;7.38;100.00
10921;BME280;5513;50.580;8.818;2023-02-13T03:28:35;101196.41;;;7.31;100.00
10921;BME280;5513;50.580;8.818;2023-02-13T03:31:30;101199.81;;;7.37;100.00
10921;BME280;5513;50.580;8.818;2023-02-13T03:34:04;101198.97;;;7.35;100.00
10921;BME280;5513;50.580;8.818;2023-02-13T03:36:39;101205.03;;;7.39;100.00
10921;BME280;5513;50.580;8.818;2023-02-13T03:39:38;101202.47;;;7.36;100.00
10921;BME280;5513;50.580;8.818;2023-02-13T03:42:16;101206.81;;;7.38;100.00
10921;BME280;5513;50.580;8.818;2023-02-13T03:44:53;101205.03;;;7.39;100.00
10921;BME280;5513;50.580;8.818;2023-02-13T03:47:36;101215.72;;;7.31;100.00
10921;BME280;5513;50.580;8.818;2023-02-13T03:50:07;101203.41;;;7.32;100.00
10921;BME280;5513;50.580;8.818;2023-02-13T03:52:42;101203.66;;;7.18;100.00
10921;BME280;5513;50.580;8.818;2023-02-13T03:55:15;101199.16;;;7.25;100.00
10921;BME280;5513;50.580;8.818;2023-02-13T03:58:04;101204.44;;;7.23;100.00
10921;BME280;5513;50.580;8.818;2023-02-13T04:00:52;101208.97;;;7.16;100.00
10921;BME280;5513;50.580;8.818;2023-02-13T04:03:28;101210.84;;;7.08;100.00
10921;BME280;5513;50.580;8.818;2023-02-13T04:06:03;101203.66;;;7.18;100.00
10921;BME280;5513;50.580;8.818;2023-02-13T04:08:33;101212.47;;;7.17;100.00
10921;BME280;5513;50.580;8.818;2023-02-13T04:11:08;101209.69;;;7.23;100.00
10921;BME280;5513;50.580;8.818;2023-02-13T04:13:42;101206.97;;;7.29;100.00
10921;BME280;5513;50.580;8.818;2023-02-13T04:16:16;101201.75;;;7.26;100.00
10921;BME280;5513;50.580;8.818;2023-02-13T04:18:47;101205.34;;;7.21;100.00
10921;BME280;5513;50.580;8.818;2023-02-13T04:21:17;101200.31;;;7.08;100.00
10921;BME280;5513;50.580;8.818;2023-02-13T04:23:45;101201.22;;;7.07;100.00
10921;BME280;5513;50.580;8.818;2023-02-13T04:26:17;101203.22;;;6.92;100.00
10921;BME280;5513;50.580;8.818;2023-02-13T04:28:46;101207.44;;;7.02;100.00
10921;BME280;5513;50.580;8.818;2023-02-13T04:31:15;101204.03;;;6.97;100.00
10921;BME280;5513;50.580;8.818;2023-02-13T04:33:43;101199.63;;;6.97;100.00
10921;BME280;5513;50.580;8.818;2023-02-13T04:36:11;101204.84;;;6.99;100.00
10921;BME280;5513;50.580;8.818;2023-02-13T04:38:40;101209.22;;;7.00;100.00
10921;BME280;5513;50.580;8.818;2023-02-13T04:41:08;101200.41;;;7.02;100.00
10921;BME280;5513;50.580;8.818;2023-02-13T04:43:39;101200.50;;;6.95;100.00
10921;BME280;5513;50.580;8.818;2023-02-13T04:46:07;101198.78;;;6.95;100.00
10921;BME280;5513;50.580;8.818;2023-02-13T04:48:38;101195.22;;;6.98;100.00
10921;BME280;5513;50.580;8.818;2023-02-13T04:51:07;101191.63;;;7.02;100.00
10921;BME280;5513;50.580;8.818;2023-02-13T04:53:35;101190.94;;;6.91;100.00
10921;BME280;5513;50.580;8.818;2023-02-13T04:56:04;101193.59;;;6.89;100.00
10921;BME280;5513;50.580;8.818;2023-02-13T04:58:32;101201.59;;;6.83;100.00
10921;BME280;5513;50.580;8.818;2023-02-13T05:01:09;101194.56;;;6.83;100.00
10921;BME280;5513;50.580;8.818;2023-02-13T05:03:38;101202.44;;;6.85;100.00
10921;BME280;5513;50.580;8.818;2023-02-13T05:06:06;101201.69;;;6.75;100.00
10921;BME280;5513;50.580;8.818;2023-02-13T05:08:34;101201.69;;;6.75;100.00
10921;BME280;5513;50.580;8.818;2023-02-13T05:11:03;101187.78;;;6.69;100.00
10921;BME280;5513;50.580;8.818;2023-02-13T05:13:31;101199.31;;;6.60;100.00
10921;BME280;5513;50.580;8.818;2023-02-13T05:16:00;101198.56;;;6.52;100.00
10921;BME280;5513;50.580;8.818;2023-02-13T05:18:29;101194.25;;;6.45;100.00
10921;BME280;5513;50.580;8.818;2023-02-13T05:20:57;101203.16;;;6.38;100.00
10921;BME280;5513;50.580;8.818;2023-02-13T05:23:43;101184.88;;;6.28;100.00
10921;BME280;5513;50.580;8.818;2023-02-13T05:26:11;101194.50;;;6.26;100.00
10921;BME280;5513;50.580;8.818;2023-02-13T05:28:39;101195.50;;;6.19;100.00
10921;BME280;5513;50.580;8.818;2023-02-13T05:31:25;101203.38;;;6.21;100.00
10921;BME280;5513;50.580;8.818;2023-02-13T05:33:55;101197.25;;;6.20;100.00
10921;BME280;5513;50.580;8.818;2023-02-13T05:36:23;101205.22;;;6.13;100.00
10921;BME280;5513;50.580;8.818;2023-02-13T05:38:52;101205.22;;;6.13;100.00
10921;BME280;5513;50.580;8.818;2023-02-13T05:41:20;101193.81;;;6.14;100.00
10921;BME280;5513;50.580;8.818;2023-02-13T05:43:49;101202.69;;;6.05;100.00
10921;BME280;5513;50.580;8.818;2023-02-13T05:46:17;101192.16;;;6.05;100.00
10921;BME280;5513;50.580;8.818;2023-02-13T05:48:46;101195.84;;;5.92;100.00
10921;BME280;5513;50.580;8.818;2023-02-13T05:51:16;101198.41;;;5.96;100.00
10921;BME280;5513;50.580;8.818;2023-02-13T05:53:45;101192.47;;;5.79;100.00
10921;BME280;5513;50.580;8.818;2023-02-13T05:56:13;101189.84;;;5.79;100.00
10921;BME280;5513;50.580;8.818;2023-02-13T05:58:42;101188.09;;;5.77;100.00
10921;BME280;5513;50.580;8.818;2023-02-13T06:01:11;101184.72;;;5.65;100.00
10921;BME280;5513;50.580;8.818;2023-02-13T06:03:41;101186.44;;;5.71;100.00
10921;BME280;5513;50.580;8.818;2023-02-13T06:06:09;101188.28;;;5.61;100.00
10921;BME280;5513;50.580;8.818;2023-02-13T06:08:39;101184.91;;;5.52;100.00
10921;BME280;5513;50.580;8.818;2023-02-13T06:11:09;101184.91;;;5.47;100.00
10921;BME280;5513;50.580;8.818;2023-02-13T06:13:37;101184.94;;;5.45;100.00
10921;BME280;5513;50.580;8.818;2023-02-13T06:16:06;101185.78;;;5.47;100.00
10921;BME280;5513;50.580;8.818;2023-02-13T06:18:35;101184.09;;;5.43;100.00
10921;BME280;5513;50.580;8.818;2023-02-13T06:21:03;101188.63;;;5.31;100.00
10921;BME280;5513;50.580;8.818;2023-02-13T06:23:32;101197.25;;;5.42;100.00
10921;BME280;5513;50.580;8.818;2023-02-13T06:26:03;101190.38;;;5.27;100.00
10921;BME280;5513;50.580;8.818;2023-02-13T06:28:33;101192.16;;;5.25;100.00
10921;BME280;5513;50.580;8.818;2023-02-13T06:31:02;101194.06;;;5.06;100.00
10921;BME280;5513;50.580;8.818;2023-02-13T06:33:31;101193.22;;;5.06;100.00
10921;BME280;5513;50.580;8.818;2023-02-13T06:36:01;101195.84;;;5.06;100.00
10921;BME280;5513;50.580;8.818;2023-02-13T06:38:30;101191.56;;;4.94;100.00
10921;BME280;5513;50.580;8.818;2023-02-13T06:40:59;101197.69;;;4.92;100.00
10921;BME280;5513;50.580;8.818;2023-02-13T06:43:30;101197.72;;;4.90;100.00
10921;BME280;5513;50.580;8.818;2023-02-13T06:46:03;101210.03;;;4.82;100.00
10921;BME280;5513;50.580;8.818;2023-02-13T06:48:32;101200.41;;;4.79;100.00
10921;BME280;5513;50.580;8.818;2023-02-13T06:51:01;101200.47;;;4.73;100.00
10921;BME280;5513;50.580;8.818;2023-02-13T06:53:30;101189.97;;;4.72;100.00
10921;BME280;5513;50.580;8.818;2023-02-13T06:56:03;101197.84;;;4.72;100.00
10921;BME280;5513;50.580;8.818;2023-02-13T06:58:34;101203.16;;;4.66;100.00
10921;BME280;5513;50.580;8.818;2023-02-13T07:01:02;101207.44;;;4.79;100.00
10921;BME280;5513;50.580;8.818;2023-02-13T07:03:31;101209.22;;;4.75;100.00
10921;BME280;5513;50.580;8.818;2023-02-13T07:06:00;101205.72;;;4.70;100.00
10921;BME280;5513;50.580;8.818;2023-02-13T07:08:29;101209.22;;;4.74;100.00
10921;BME280;5513;50.580;8.818;2023-02-13T07:10:57;101206.59;;;4.72;100.00
10921;BME280;5513;50.580;8.818;2023-02-13T07:13:25;101208.34;;;4.70;100.00
10921;BME280;5513;50.580;8.818;2023-02-13T07:15:59;101209.22;;;4.75;100.00
10921;BME280;5513;50.580;8.818;2023-02-13T07:18:28;101207.50;;;4.70;100.00
10921;BME280;5513;50.580;8.818;2023-02-13T07:20:57;101202.25;;;4.68;100.00
10921;BME280;5513;50.580;8.818;2023-02-13T07:23:25;101209.31;;;4.60;100.00
10921;BME280;5513;50.580;8.818;2023-02-13T07:25:58;101204.00;;;4.69;100.00
10921;BME280;5513;50.580;8.818;2023-02-13T07:28:27;101203.88;;;4.86;100.00
10921;BME280;5513;50.580;8.818;2023-02-13T07:30:57;101202.22;;;4.76;100.00
10921;BME280;5513;50.580;8.818;2023-02-13T07:33:25;101209.19;;;4.77;100.00
10921;BME280;5513;50.580;8.818;2023-02-13T07:35:53;101199.47;;;4.88;100.00
10921;BME280;5513;50.580;8.818;2023-02-13T07:38:22;101202.88;;;5.02;100.00
10921;BME280;5513;50.580;8.818;2023-02-13T07:40:50;101198.44;;;5.07;100.00
10921;BME280;5513;50.580;8.818;2023-02-13T07:43:18;101202.00;;;5.03;100.00
10921;BME280;5513;50.580;8.818;2023-02-13T07:45:47;101207.16;;;5.12;100.00
10921;BME280;5513;50.580;8.818;2023-02-13T07:48:17;101207.16;;;5.12;100.00
10921;BME280;5513;50.580;8.818;2023-02-13T07:50:45;101206.28;;;5.10;100.00
10921;BME280;5513;50.580;8.818;2023-02-13T07:53:13;101215.03;;;5.11;100.00
10921;BME280;5513;50.580;8.818;2023-02-13T07:55:41;101213.22;;;5.19;100.00
10921;BME280;5513;50.580;8.818;2023-02-13T07:58:10;101221.06;;;5.24;100.00
10921;BME280;5513;50.580;8.818;2023-02-13T08:00:38;101224.56;;;5.26;100.00
10921;BME280;5513;50.580;8.818;2023-02-13T08:03:08;101228.78;;;5.42;100.00
10921;BME280;5513;50.580;8.818;2023-02-13T08:05:38;101229.59;;;5.50;100.00
10921;BME280;5513;50.580;8.818;2023-02-13T08:08:07;101229.56;;;5.53;100.00
10921;BME280;5513;50.580;8.818;2023-02-13T08:10:35;101225.09;;;5.58;100.00
10921;BME280;5513;50.580;8.818;2023-02-13T08:13:21;101224.25;;;5.58;100.00
10921;BME280;5513;50.580;8.818;2023-02-13T08:15:49;101228.38;;;5.79;100.00
10921;BME280;5513;50.580;8.818;2023-02-13T08:18:17;101224.13;;;5.67;100.00
10921;BME280;5513;50.580;8.818;2023-02-13T08:20:47;101229.19;;;5.87;100.00
10921;BME280;5513;50.580;8.818;2023-02-13T08:23:15;101228.03;;;6.14;100.00
10921;BME280;5513;50.580;8.818;2023-02-13T08:25:43;101227.91;;;6.23;100.00
10921;BME280;5513;50.580;8.818;2023-02-13T08:28:14;101216.38;;;6.33;100.00
10921;BME280;5513;50.580;8.818;2023-02-13T08:30:42;101225.69;;;6.55;100.00
10921;BME280;5513;50.580;8.818;2023-02-13T08:33:11;101222.13;;;6.61;100.00
10921;BME280;5513;50.580;8.818;2023-02-13T08:35:39;101218.41;;;6.76;100.00
10921;BME280;5513;50.580;8.818;2023-02-13T08:38:09;101224.34;;;6.88;100.00
10921;BME280;5513;50.580;8.818;2023-02-13T08:40:39;101223.47;;;6.88;100.00
10921;BME280;5513;50.580;8.818;2023-02-13T08:43:07;101211.94;;;6.97;100.00
10921;BME280;5513;50.580;8.818;2023-02-13T08:45:36;101219.44;;;7.20;100.00
10921;BME280;5513;50.580;8.818;2023-02-13T08:48:04;101217.00;;;7.07;100.00
10921;BME280;5513;50.580;8.818;2023-02-13T08:50:33;101221.06;;;7.28;100.00
10921;BME280;5513;50.580;8.818;2023-02-13T08:53:03;101219.19;;;7.33;100.00
10921;BME280;5513;50.580;8.818;2023-02-13T08:55:32;101211.19;;;7.39;100.00
10921;BME280;5513;50.580;8.818;2023-02-13T08:58:01;101211.78;;;7.55;100.00
10921;BME280;5513;50.580;8.818;2023-02-13T09:00:30;101204.88;;;7.48;100.00
10921;BME280;5513;50.580;8.818;2023-02-13T09:03:02;101209.78;;;7.68;100.00
10921;BME280;5513;50.580;8.818;2023-02-13T09:05:34;101209.59;;;7.77;100.00
10921;BME280;5513;50.580;8.818;2023-02-13T09:08:02;101213.69;;;7.93;100.00
10921;BME280;5513;50.580;8.818;2023-02-13T09:10:33;101207.16;;;8.11;100.00
10921;BME280;5513;50.580;8.818;2023-02-13T09:13:02;101208.03;;;8.10;100.00
10921;BME280;5513;50.580;8.818;2023-02-13T09:15:32;101205.25;;;8.18;100.00
10921;BME280;5513;50.580;8.818;2023-02-13T09:18:02;101206.78;;;8.28;100.00
10921;BME280;5513;50.580;8.818;2023-02-13T09:20:30;101201.25;;;8.42;100.00
10921;BME280;5513;50.580;8.818;2023-02-13T09:23:01;101209.06;;;8.46;100.00
10921;BME280;5513;50.580;8.818;2023-02-13T09:25:30;101202.28;;;8.35;100.00
10921;BME280;5513;50.580;8.818;2023-02-13T09:27:59;101209.22;;;8.40;100.00
10921;BME280;5513;50.580;8.818;2023-02-13T09:30:28;101198.72;;;8.36;100.00
10921;BME280;5513;50.580;8.818;2023-02-13T09:32:56;101198.06;;;8.65;100.00
10921;BME280;5513;50.580;8.818;2023-02-13T09:35:25;101201.19;;;8.82;100.00
10921;BME280;5513;50.580;8.818;2023-02-13T09:37:54;101210.81;;;8.84;100.00
10921;BME280;5513;50.580;8.818;2023-02-13T09:40:27;101203.53;;;8.94;100.00
10921;BME280;5513;50.580;8.818;2023-02-13T09:43:06;101200.38;;;8.80;100.00
10921;BME280;5513;50.580;8.818;2023-02-13T09:45:35;101194.34;;;8.73;100.00
10921;BME280;5513;50.580;8.818;2023-02-13T09:48:04;101194.16;;;9.18;100.00
10921;BME280;5513;50.580;8.818;2023-02-13T09:50:33;101195.09;;;9.14;100.00
10921;BME280;5513;50.580;8.818;2023-02-13T09:53:03;101190.78;;;9.11;100.00
10921;BME280;5513;50.580;8.818;2023-02-13T09:55:38;101195.41;;;9.37;100.00
10921;BME280;5513;50.580;8.818;2023-02-13T09:58:21;101182.94;;;9.73;100.00
10921;BME280;5513;50.580;8.818;2023-02-13T10:00:57;101195.63;;;9.28;100.00
10921;BME280;5513;50.580;8.818;2023-02-13T10:03:28;101187.91;;;9.84;100.00
10921;BME280;5513;50.580;8.818;2023-02-13T10:06:05;101188.56;;;9.92;100.00
10921;BME280;5513;50.580;8.818;2023-02-13T10:09:03;101185.34;;;10.12;100.00
10921;BME280;5513;50.580;8.818;2023-02-13T10:11:44;101187.91;;;9.84;100.00
10921;BME280;5513;50.580;8.818;2023-02-13T10:14:24;101184.34;;;9.87;100.00
10921;BME280;5513;50.580;8.818;2023-02-13T10:16:55;101186.78;;;9.93;100.00
10921;BME280;5513;50.580;8.818;2023-02-13T10:19:33;101181.75;;;9.53;100.00
10921;BME280;5513;50.580;8.818;2023-02-13T10:22:06;101182.56;;;9.87;100.00
10921;BME280;5513;50.580;8.818;2023-02-13T10:24:41;101180.53;;;9.64;100.00
10921;BME280;5513;50.580;8.818;2023-02-13T10:27:19;101185.34;;;10.12;100.00
10921;BME280;5513;50.580;8.818;2023-02-13T10:29:54;101185.97;;;10.22;100.00
10921;BME280;5513;50.580;8.818;2023-02-13T10:32:40;101185.34;;;10.12;100.00
10921;BME280;5513;50.580;8.818;2023-02-13T10:35:17;101184.97;;;10.55;100.00
10921;BME280;5513;50.580;8.818;2023-02-13T10:37:47;101187.06;;;10.44;100.00
10921;BME280;5513;50.580;8.818;2023-02-13T10:40:18;101183.97;;;10.58;100.00
10921;BME280;5513;50.580;8.818;2023-02-13T10:42:51;101183.22;;;10.54;100.00
10921;BME280;5513;50.580;8.818;2023-02-13T10:45:38;101186.47;;;10.64;100.00
10921;BME280;5513;50.580;8.818;2023-02-13T10:48:21;101184.34;;;11.02;100.00
10921;BME280;5513;50.580;8.818;2023-02-13T10:51:03;101189.91;;;10.94;100.00
10921;BME280;5513;50.580;8.818;2023-02-13T10:53:42;101178.75;;;11.36;100.00
10921;BME280;5513;50.580;8.818;2023-02-13T10:56:24;101167.69;;;11.23;100.00
10921;BME280;5513;50.580;8.818;2023-02-13T10:59:07;101169.16;;;11.57;100.00
10921;BME280;5513;50.580;8.818;2023-02-13T11:01:41;101162.94;;;11.33;100.00
10921;BME280;5513;50.580;8.818;2023-02-13T11:04:16;101155.69;;;11.63;100.00
10921;BME280;5513;50.580;8.818;2023-02-13T11:06:51;101149.31;;;11.92;100.00
10921;BME280;5513;50.580;8.818;2023-02-13T11:09:22;101162.59;;;11.17;100.00
10921;BME280;5513;50.580;8.818;2023-02-13T11:11:51;101155.97;;;11.30;100.00
10921;BME280;5513;50.580;8.818;2023-02-13T11:14:21;101146.78;;;11.64;100.00
10921;BME280;5513;50.580;8.818;2023-02-13T11:16:53;101142.13;;;11.70;100.00
10921;BME280;5513;50.580;8.818;2023-02-13T11:19:30;101138.41;;;11.26;100.00
10921;BME280;5513;50.580;8.818;2023-02-13T11:22:02;101135.09;;;11.69;100.00
10921;BME280;5513;50.580;8.818;2023-02-13T11:24:32;101137.16;;;11.36;100.00
10921;BME280;5513;50.580;8.818;2023-02-13T11:27:04;101133.84;;;12.03;100.00
10921;BME280;5513;50.580;8.818;2023-02-13T11:29:36;101133.19;;;11.96;100.00
10921;BME280;5513;50.580;8.818;2023-02-13T11:32:18;101134.34;;;11.41;100.00
10921;BME280;5513;50.580;8.818;2023-02-13T11:34:48;101126.88;;;12.00;100.00
10921;BME280;5513;50.580;8.818;2023-02-13T11:37:23;101135.69;;;12.01;100.00
10921;BME280;5513;50.580;8.818;2023-02-13T11:39:55;101133.13;;;12.21;100.00
10921;BME280;5513;50.580;8.818;2023-02-13T11:42:27;101118.41;;;12.13;100.00
10921;BME280;5513;50.580;8.818;2023-02-13T11:45:00;101119.56;;;12.06;100.00
10921;BME280;5513;50.580;8.818;2023-02-13T11:47:38;101116.25;;;11.52;100.00
10921;BME280;5513;50.580;8.818;2023-02-13T11:50:20;101122.63;;;11.46;100.00
10921;BME280;5513;50.580;8.818;2023-02-13T11:52:54;101122.56;;;11.50;100.00
10921;BME280;5513;50.580;8.818;2023-02-13T11:55:26;101119.22;;;11.68;100.00
10921;BME280;5513;50.580;8.818;2023-02-13T11:57:58;101120.06;;;11.93;100.00
10921;BME280;5513;50.580;8.818;2023-02-13T12:00:31;101115.00;;;11.87;100.00
10921;BME280;5513;50.580;8.818;2023-02-13T12:03:25;101117.69;;;12.31;100.00
10921;BME280;5513;50.580;8.818;2023-02-13T12:06:00;101114.97;;;12.32;100.00
10921;BME280;5513;50.580;8.818;2023-02-13T12:08:30;101116.31;;;12.86;100.00
10921;BME280;5513;50.580;8.818;2023-02-13T12:11:01;101108.53;;;13.02;100.00
10921;BME280;5513;50.580;8.818;2023-02-13T12:13:34;101102.88;;;13.71;100.00
10921;BME280;5513;50.580;8.818;2023-02-13T12:16:10;101103.81;;;14.08;97.91
10921;BME280;5513;50.580;8.818;2023-02-13T12:18:44;101103.22;;;13.63;97.92
10921;BME280;5513;50.580;8.818;2023-02-13T12:21:26;101098.38;;;14.28;93.16
10921;BME280;5513;50.580;8.818;2023-02-13T12:24:05;101102.88;;;14.46;88.91
10921;BME280;5513;50.580;8.818;2023-02-13T12:26:41;101098.75;;;14.75;89.27
10921;BME280;5513;50.580;8.818;2023-02-13T12:32:17;101088.88;;;15.12;83.62
10921;BME280;5513;50.580;8.818;2023-02-13T12:35:03;101071.09;;;15.45;81.90
10921;BME280;5513;50.580;8.818;2023-02-13T12:37:59;101073.75;;;14.78;87.00
10921;BME280;5513;50.580;8.818;2023-02-13T12:40:44;101072.66;;;15.16;82.96
10921;BME280;5513;50.580;8.818;2023-02-13T12:43:33;101070.34;;;15.59;80.66
10921;BME280;5513;50.580;8.818;2023-02-13T12:46:11;101065.50;;;15.50;80.73
10921;BME280;5513;50.580;8.818;2023-02-13T12:48:48;101076.50;;;15.44;79.51
10921;BME280;5513;50.580;8.818;2023-02-13T12:51:28;101066.78;;;15.76;79.23
10921;BME280;5513;50.580;8.818;2023-02-13T12:54:20;101070.44;;;16.22;76.16
10921;BME280;5513;50.580;8.818;2023-02-13T12:57:03;101059.13;;;15.86;78.03
10921;BME280;5513;50.580;8.818;2023-02-13T12:59:44;101066.19;;;15.87;75.97
10921;BME280;5513;50.580;8.818;2023-02-13T13:02:41;101050.78;;;16.08;74.39
10921;BME280;5513;50.580;8.818;2023-02-13T13:05:26;101052.06;;;15.85;73.94
10921;BME280;5513;50.580;8.818;2023-02-13T13:08:12;101052.66;;;16.06;74.50
10921;BME280;5513;50.580;8.818;2023-02-13T13:10:53;101046.63;;;16.34;72.70
10921;BME280;5513;50.580;8.818;2023-02-13T13:13:40;101037.72;;;16.79;70.71
10921;BME280;5513;50.580;8.818;2023-02-13T13:16:19;101041.16;;;16.51;70.65
10921;BME280;5513;50.580;8.818;2023-02-13T13:18:58;101043.78;;;16.05;71.92
10921;BME280;5513;50.580;8.818;2023-02-13T13:21:36;101034.59;;;16.86;69.29
10921;BME280;5513;50.580;8.818;2023-02-13T13:24:21;101037.97;;;16.90;64.33
10921;BME280;5513;50.580;8.818;2023-02-13T13:26:52;101039.25;;;17.13;65.08
10921;BME280;5513;50.580;8.818;2023-02-13T13:29:28;101037.56;;;16.82;65.40
10921;BME280;5513;50.580;8.818;2023-02-13T13:32:01;101035.75;;;16.67;66.65
10921;BME280;5513;50.580;8.818;2023-02-13T13:34:31;101040.69;;;16.58;66.39
10921;BME280;5513;50.580;8.818;2023-02-13T13:37:05;101031.66;;;17.05;64.15